createdAt,value
2019-03-03T00:01:46.368Z,34.10
2019-03-03T00:04:14.602Z,34.47
2019-03-03T00:06:42.749Z,36.10
2019-03-03T00:09:10.873Z,36.20
2019-03-03T00:11:41.741Z,37.40
2019-03-03T00:14:09.921Z,38.20
2019-03-03T00:16:38.692Z,37.47
2019-03-03T00:19:06.941Z,36.67
2019-03-03T00:21:35.077Z,37.77
2019-03-03T00:24:03.384Z,35.70
2019-03-03T00:26:31.525Z,36.03
2019-03-03T00:28:59.719Z,37.23
2019-03-03T00:31:35.529Z,36.27
2019-03-03T00:34:03.771Z,37.67
2019-03-03T00:36:49.804Z,37.70
2019-03-03T00:39:46.586Z,36.97
2019-03-03T00:42:30.460Z,36.73
2019-03-03T00:45:17.768Z,37.10
2019-03-03T00:48:01.844Z,37.03
2019-03-03T00:50:39.703Z,37.33
2019-03-03T00:53:30.273Z,39.67
2019-03-03T00:56:04.854Z,36.47
2019-03-03T00:58:57.045Z,38.47
2019-03-03T01:01:56.760Z,37.03
2019-03-03T01:04:45.627Z,38.33
2019-03-03T01:07:45.266Z,36.53
2019-03-03T01:10:23.126Z,36.30
2019-03-03T01:13:02.536Z,36.57
2019-03-03T01:15:50.201Z,36.90
2019-03-03T01:18:43.669Z,36.03
2019-03-03T01:21:37.437Z,36.77
2019-03-03T01:24:11.902Z,35.37
2019-03-03T01:26:40.057Z,33.97
2019-03-03T01:29:08.182Z,36.13
2019-03-03T01:31:36.378Z,34.33
2019-03-03T01:34:04.427Z,35.10
2019-03-03T01:36:32.722Z,32.10
2019-03-03T01:39:04.740Z,33.80
2019-03-03T01:41:34.145Z,31.93
2019-03-03T01:44:02.356Z,31.13
2019-03-03T01:46:31.354Z,32.03
2019-03-03T01:49:00.666Z,31.67
2019-03-03T01:51:28.813Z,31.43
2019-03-03T01:53:57.016Z,30.97
2019-03-03T01:56:25.283Z,32.00
2019-03-03T01:58:53.510Z,30.00
2019-03-03T02:01:21.959Z,29.93
2019-03-03T02:03:50.019Z,28.80
2019-03-03T02:06:18.238Z,28.67
2019-03-03T02:08:46.632Z,27.43
2019-03-03T02:11:14.930Z,26.03
2019-03-03T02:13:43.118Z,24.87
2019-03-03T02:16:12.533Z,26.40
2019-03-03T02:18:40.593Z,24.77
2019-03-03T02:21:08.650Z,24.80
2019-03-03T02:23:36.796Z,23.57
2019-03-03T02:26:04.876Z,23.43
2019-03-03T02:28:32.988Z,22.10
2019-03-03T02:31:01.413Z,23.53
2019-03-03T02:33:29.567Z,23.23
2019-03-03T02:35:57.684Z,21.93
2019-03-03T02:38:25.870Z,23.13
2019-03-03T02:40:53.988Z,21.47
2019-03-03T02:43:22.428Z,22.50
2019-03-03T02:45:50.687Z,22.70
2019-03-03T02:48:18.898Z,21.83
2019-03-03T02:50:46.976Z,22.87
2019-03-03T02:53:15.225Z,21.33
2019-03-03T02:55:43.312Z,22.40
2019-03-03T02:58:11.556Z,21.80
2019-03-03T03:00:47.033Z,20.80
2019-03-03T03:03:16.665Z,20.47
2019-03-03T03:06:02.192Z,20.30
2019-03-03T03:08:39.506Z,19.03
2019-03-03T03:11:27.047Z,20.07
2019-03-03T03:14:00.477Z,18.00
2019-03-03T03:16:48.371Z,18.57
2019-03-03T03:19:42.112Z,16.60
2019-03-03T03:22:34.764Z,17.17
2019-03-03T03:25:09.013Z,16.93
2019-03-03T03:27:59.640Z,14.73
2019-03-03T03:30:34.011Z,15.50
2019-03-03T03:33:22.014Z,15.60
2019-03-03T03:35:55.634Z,13.87
2019-03-03T03:38:38.658Z,12.83
2019-03-03T03:41:14.553Z,12.60
2019-03-03T03:44:00.519Z,12.80
2019-03-03T03:46:51.103Z,11.70
2019-03-03T03:49:41.697Z,11.57
2019-03-03T03:52:27.693Z,11.47
2019-03-03T03:55:33.346Z,10.33
2019-03-03T03:58:12.929Z,10.07
2019-03-03T04:00:59.086Z,9.70
2019-03-03T04:03:49.841Z,10.30
2019-03-03T04:06:33.200Z,9.47
2019-03-03T04:09:07.151Z,9.87
2019-03-03T04:11:45.300Z,9.00
2019-03-03T04:14:18.976Z,9.00
2019-03-03T04:16:56.620Z,8.43
2019-03-03T04:19:29.758Z,8.70
2019-03-03T04:22:17.509Z,8.30
2019-03-03T04:25:11.620Z,8.33
2019-03-03T04:28:01.944Z,7.83
2019-03-03T04:30:38.035Z,7.03
2019-03-03T04:33:34.950Z,7.73
2019-03-03T04:36:14.733Z,7.50
2019-03-03T04:38:51.903Z,8.07
2019-03-03T04:41:26.651Z,7.87
2019-03-03T04:44:08.720Z,7.70
2019-03-03T04:46:55.113Z,7.30
2019-03-03T04:49:45.789Z,7.87
2019-03-03T04:52:45.400Z,7.30
2019-03-03T04:55:31.432Z,8.57
2019-03-03T04:58:17.523Z,7.50
2019-03-03T05:01:20.409Z,7.73
2019-03-03T05:04:15.519Z,7.23
2019-03-03T05:07:07.821Z,7.30
2019-03-03T05:09:50.426Z,6.80
2019-03-03T05:12:49.270Z,7.17
2019-03-03T05:15:36.670Z,7.43
2019-03-03T05:18:15.856Z,7.03
2019-03-03T05:20:45.305Z,7.47
2019-03-03T05:23:13.748Z,8.27
2019-03-03T05:25:41.912Z,8.60
2019-03-03T05:28:11.089Z,8.67
2019-03-03T05:30:39.897Z,9.23
2019-03-03T05:33:08.108Z,8.60
2019-03-03T05:35:36.400Z,8.27
2019-03-03T05:38:04.538Z,8.33
2019-03-03T05:40:32.795Z,10.00
2019-03-03T05:43:00.886Z,9.13
2019-03-03T05:45:29.070Z,8.83
2019-03-03T05:47:57.230Z,8.60
2019-03-03T05:50:25.329Z,9.90
2019-03-03T05:52:53.543Z,10.03
2019-03-03T05:55:21.759Z,10.30
2019-03-03T05:57:49.844Z,9.70
2019-03-03T06:00:18.362Z,10.47
2019-03-03T06:02:46.427Z,10.50
2019-03-03T06:05:14.696Z,10.33
2019-03-03T06:07:44.003Z,11.00
2019-03-03T06:10:14.147Z,11.77
2019-03-03T06:12:43.394Z,10.73
2019-03-03T06:15:12.825Z,11.80
2019-03-03T06:17:40.974Z,11.73
2019-03-03T06:20:10.479Z,12.20
2019-03-03T06:22:38.547Z,12.77
2019-03-03T06:25:08.909Z,11.93
2019-03-03T06:27:37.101Z,12.47
2019-03-03T06:30:06.339Z,13.77
2019-03-03T06:32:34.517Z,13.70
2019-03-03T06:35:03.464Z,13.20
2019-03-03T06:37:31.569Z,13.03
2019-03-03T06:39:59.729Z,14.60
2019-03-03T06:42:27.837Z,13.93
2019-03-03T06:44:55.885Z,14.20
2019-03-03T06:47:24.019Z,13.37
2019-03-03T06:49:52.194Z,15.13
2019-03-03T06:52:20.412Z,14.83
2019-03-03T06:54:48.782Z,14.83
2019-03-03T06:57:16.795Z,15.03
2019-03-03T06:59:45.079Z,15.07
2019-03-03T07:02:13.120Z,15.27
2019-03-03T07:04:41.298Z,14.87
2019-03-03T07:07:09.564Z,16.10
2019-03-03T07:09:37.670Z,15.30
2019-03-03T07:12:05.760Z,16.37
2019-03-03T07:14:33.949Z,15.10
2019-03-03T07:17:02.123Z,15.67
2019-03-03T07:19:30.315Z,15.13
2019-03-03T07:21:58.499Z,15.10
2019-03-03T07:24:26.596Z,15.27
2019-03-03T07:26:54.796Z,16.50
2019-03-03T07:29:22.902Z,16.60
2019-03-03T07:31:50.991Z,16.77
2019-03-03T07:34:19.187Z,16.43
2019-03-03T07:36:47.550Z,15.83
2019-03-03T07:39:17.809Z,16.47
2019-03-03T07:41:46.396Z,15.73
2019-03-03T07:44:14.914Z,16.27
2019-03-03T07:46:43.125Z,16.00
2019-03-03T07:49:11.196Z,15.17
2019-03-03T07:51:40.256Z,14.90
2019-03-03T07:54:08.513Z,14.73
2019-03-03T07:56:36.672Z,15.37
2019-03-03T07:59:05.116Z,14.27
2019-03-03T08:01:33.213Z,13.33
2019-03-03T08:04:01.381Z,13.60
2019-03-03T08:06:29.461Z,14.33
2019-03-03T08:08:57.587Z,13.73
2019-03-03T08:11:27.638Z,13.60
2019-03-03T08:13:55.798Z,14.50
2019-03-03T08:16:23.954Z,14.20
2019-03-03T08:18:52.061Z,14.17
2019-03-03T08:21:20.259Z,13.47
2019-03-03T08:23:48.279Z,13.23
2019-03-03T08:26:16.315Z,13.80
2019-03-03T08:28:44.421Z,14.00
2019-03-03T08:31:12.555Z,13.43
2019-03-03T08:33:40.781Z,14.57
2019-03-03T08:36:09.708Z,12.90
2019-03-03T08:38:38.112Z,12.83
2019-03-03T08:41:06.156Z,12.53
2019-03-03T08:43:41.430Z,12.53
2019-03-03T08:46:26.160Z,12.00
2019-03-03T08:49:13.929Z,12.03
2019-03-03T08:52:10.738Z,13.23
2019-03-03T08:54:59.398Z,12.90
2019-03-03T08:57:44.373Z,12.77
2019-03-03T09:00:22.528Z,12.63
2019-03-03T09:03:06.998Z,13.20
2019-03-03T09:06:00.290Z,13.03
2019-03-03T09:08:52.264Z,12.50
2019-03-03T09:11:45.643Z,12.47
2019-03-03T09:14:32.698Z,13.23
2019-03-03T09:17:20.626Z,12.63
2019-03-03T09:20:03.290Z,12.20
2019-03-03T09:22:46.520Z,12.60
2019-03-03T09:25:39.960Z,12.20
2019-03-03T09:28:26.158Z,12.30
2019-03-03T09:31:25.878Z,11.93
2019-03-03T09:34:07.146Z,12.40
2019-03-03T09:36:53.833Z,12.00
2019-03-03T09:39:40.021Z,11.17
2019-03-03T09:42:28.891Z,11.20
2019-03-03T09:45:22.653Z,10.30
2019-03-03T09:48:08.261Z,10.33
2019-03-03T09:50:58.489Z,9.30
2019-03-03T09:53:45.899Z,9.57
2019-03-03T09:56:36.889Z,9.70
2019-03-03T09:59:16.667Z,9.50
2019-03-03T10:02:16.744Z,9.40
2019-03-03T10:04:54.152Z,10.17
2019-03-03T10:07:59.757Z,10.07
2019-03-03T10:10:55.985Z,10.47
2019-03-03T10:13:46.942Z,10.80
2019-03-03T10:16:39.322Z,11.30
2019-03-03T10:19:27.625Z,11.47
2019-03-03T10:22:05.409Z,12.27
2019-03-03T10:25:04.592Z,12.10
2019-03-03T10:27:57.774Z,12.07
2019-03-03T10:30:41.778Z,12.30
2019-03-03T10:33:35.673Z,13.17
2019-03-03T10:36:14.114Z,12.57
2019-03-03T10:39:05.410Z,13.27
2019-03-03T10:41:49.615Z,12.63
2019-03-03T10:44:28.562Z,13.63
2019-03-03T10:47:09.574Z,13.17
2019-03-03T10:50:01.715Z,13.77
2019-03-03T10:52:40.078Z,14.57
2019-03-03T10:55:25.190Z,14.57
2019-03-03T10:58:00.694Z,16.53
2019-03-03T11:00:37.501Z,16.57
2019-03-03T11:03:22.385Z,16.90
2019-03-03T11:06:09.142Z,15.33
2019-03-03T11:08:52.843Z,13.47
2019-03-03T11:11:41.184Z,12.60
2019-03-03T11:14:29.375Z,12.07
2019-03-03T11:17:17.717Z,11.57
2019-03-03T11:19:56.072Z,11.20
2019-03-03T11:22:47.259Z,10.53
2019-03-03T11:25:39.887Z,11.33
2019-03-03T11:28:34.636Z,11.43
2019-03-03T11:31:13.975Z,12.63
2019-03-03T11:34:08.056Z,13.43
2019-03-03T11:36:41.827Z,14.17
2019-03-03T11:39:36.943Z,14.53
2019-03-03T11:42:31.301Z,15.03
2019-03-03T11:45:11.769Z,13.80
2019-03-03T11:48:04.110Z,13.87
2019-03-03T11:50:54.840Z,13.57
2019-03-03T11:53:53.015Z,13.60
2019-03-03T11:56:40.163Z,12.60
2019-03-03T11:59:31.172Z,12.23
2019-03-03T12:02:20.594Z,11.10
2019-03-03T12:05:08.785Z,11.20
2019-03-03T12:07:48.377Z,10.63
2019-03-03T12:10:36.985Z,9.23
2019-03-03T12:13:21.042Z,7.73
2019-03-03T12:16:11.681Z,8.17
2019-03-03T12:18:58.081Z,8.67
2019-03-03T12:21:38.672Z,8.80
2019-03-03T12:24:13.793Z,7.60
2019-03-03T12:27:01.947Z,9.20
2019-03-03T12:29:40.562Z,9.13
2019-03-03T12:32:31.999Z,9.87
2019-03-03T12:35:09.266Z,10.33
2019-03-03T12:37:51.257Z,10.63
2019-03-03T12:40:48.278Z,11.07
2019-03-03T12:43:45.109Z,11.53
2019-03-03T12:46:36.442Z,11.97
2019-03-03T12:49:16.697Z,11.63
2019-03-03T12:52:11.567Z,12.40
2019-03-03T12:55:07.150Z,12.33
2019-03-03T12:57:56.758Z,11.67
2019-03-03T13:00:38.937Z,12.27
2019-03-03T13:03:31.429Z,11.10
2019-03-03T13:06:34.443Z,10.90
2019-03-03T13:09:13.857Z,10.47
2019-03-03T13:12:03.876Z,9.87
2019-03-03T13:14:55.472Z,10.00
2019-03-03T13:17:49.523Z,10.53
2019-03-03T13:20:40.956Z,9.47
2019-03-03T13:23:25.091Z,9.83
2019-03-03T13:26:16.878Z,10.37
2019-03-03T13:29:12.239Z,11.20
2019-03-03T13:32:02.211Z,11.27
2019-03-03T13:35:02.112Z,11.53
2019-03-03T13:37:48.938Z,11.47
2019-03-03T13:40:52.008Z,11.57
2019-03-03T13:43:23.660Z,11.60
2019-03-03T13:45:52.389Z,12.23
2019-03-03T13:48:23.792Z,11.60
2019-03-03T13:50:52.461Z,11.83
2019-03-03T13:53:24.408Z,11.33
2019-03-03T13:55:53.409Z,11.87
2019-03-03T13:58:21.692Z,11.47
2019-03-03T14:00:53.205Z,11.83
2019-03-03T14:03:24.037Z,12.17
2019-03-03T14:05:53.280Z,11.00
2019-03-03T14:08:22.750Z,11.40
2019-03-03T14:10:57.324Z,9.77
2019-03-03T14:13:25.691Z,10.30
2019-03-03T14:15:53.915Z,9.77
2019-03-03T14:18:22.037Z,10.03
2019-03-03T14:20:50.853Z,9.17
2019-03-03T14:23:19.281Z,8.67
2019-03-03T14:25:47.797Z,8.17
2019-03-03T14:28:16.244Z,8.67
2019-03-03T14:30:44.715Z,7.73
2019-03-03T14:33:12.990Z,7.77
2019-03-03T14:35:42.174Z,7.43
2019-03-03T14:38:10.255Z,7.70
2019-03-03T14:40:39.107Z,6.80
2019-03-03T14:43:07.199Z,6.93
2019-03-03T14:45:35.388Z,6.50
2019-03-03T14:48:03.695Z,5.60
2019-03-03T14:50:32.537Z,6.10
2019-03-03T14:53:00.631Z,5.70
2019-03-03T14:55:28.701Z,6.17
2019-03-03T14:57:57.115Z,5.93
2019-03-03T15:00:28.674Z,6.03
2019-03-03T15:02:59.859Z,6.50
2019-03-03T15:05:28.697Z,6.70
2019-03-03T15:07:57.560Z,6.83
2019-03-03T15:10:25.880Z,7.33
2019-03-03T15:12:54.002Z,6.73
2019-03-03T15:15:22.872Z,7.40
2019-03-03T15:17:51.462Z,7.50
2019-03-03T15:20:19.689Z,7.13
2019-03-03T15:22:48.094Z,7.67
2019-03-03T15:25:16.454Z,7.87
2019-03-03T15:27:44.668Z,8.50
2019-03-03T15:30:16.859Z,8.10
2019-03-03T15:32:45.340Z,8.73
2019-03-03T15:35:14.590Z,9.30
2019-03-03T15:37:43.040Z,9.07
2019-03-03T15:40:12.155Z,8.97
2019-03-03T15:45:24.555Z,7.40
2019-03-03T15:48:09.089Z,6.80
2019-03-03T15:50:50.690Z,5.97
2019-03-03T15:53:38.449Z,6.17
2019-03-03T15:56:19.080Z,6.03
2019-03-03T15:58:55.455Z,5.70
2019-03-03T16:01:43.328Z,6.40
2019-03-03T16:04:24.552Z,6.17
2019-03-03T16:07:05.778Z,6.30
2019-03-03T16:10:34.411Z,6.63
2019-03-03T16:13:07.292Z,6.83
2019-03-03T16:22:32.889Z,8.03
2019-03-03T16:25:39.727Z,7.33
2019-03-03T16:28:29.128Z,7.90
2019-03-03T16:31:16.830Z,9.07
2019-03-03T16:37:30.799Z,9.80
2019-03-03T16:40:12.860Z,10.43
2019-03-03T16:42:54.314Z,10.50
2019-03-03T16:45:42.039Z,11.50
2019-03-03T16:51:54.457Z,11.90
2019-03-03T16:54:44.311Z,12.83
2019-03-03T16:57:24.722Z,11.90
2019-03-03T17:00:14.634Z,12.37
2019-03-03T17:02:54.935Z,12.50
2019-03-03T17:05:42.456Z,12.70
2019-03-03T17:08:10.664Z,12.67
2019-03-03T17:10:58.450Z,12.10
2019-03-03T17:13:41.104Z,12.47
2019-03-03T17:16:24.284Z,11.60
2019-03-03T17:19:05.569Z,12.37
2019-03-03T17:22:12.558Z,11.77
2019-03-03T17:24:53.833Z,11.30
2019-03-03T17:27:34.903Z,11.57
2019-03-03T17:30:25.355Z,11.60
2019-03-03T17:33:06.948Z,11.67
2019-03-03T17:35:54.564Z,11.83
2019-03-03T17:38:42.557Z,11.30
2019-03-03T17:44:31.486Z,11.50
2019-03-03T17:47:19.058Z,12.13
2019-03-03T17:50:00.838Z,11.47
2019-03-03T17:52:48.683Z,10.97
2019-03-03T17:55:30.986Z,10.77
2019-03-03T17:58:54.551Z,11.10
2019-03-03T18:01:41.951Z,11.10
2019-03-03T18:04:30.767Z,11.33
2019-03-03T18:07:17.914Z,12.10
2019-03-03T18:09:58.739Z,12.80
2019-03-03T18:12:46.179Z,12.57
2019-03-03T18:15:32.937Z,13.03
2019-03-03T18:18:13.637Z,12.73
2019-03-03T18:20:42.948Z,13.67
2019-03-03T18:23:21.140Z,14.20
2019-03-03T18:26:08.656Z,13.73
2019-03-03T18:28:49.530Z,15.00
2019-03-03T18:31:37.090Z,14.93
2019-03-03T18:34:17.732Z,15.37
2019-03-03T18:36:46.637Z,15.77
2019-03-03T18:39:36.756Z,15.67
2019-03-03T18:42:24.393Z,15.67
2019-03-03T18:45:14.864Z,15.67
2019-03-03T18:47:55.203Z,15.60
2019-03-03T18:50:42.971Z,16.50
2019-03-03T18:53:25.072Z,16.53
2019-03-03T18:56:30.552Z,17.20
2019-03-03T18:59:10.989Z,17.47
2019-03-03T19:01:58.737Z,16.33
2019-03-03T19:04:39.102Z,17.10
2019-03-03T19:07:26.663Z,17.60
2019-03-03T19:10:08.606Z,17.60
2019-03-03T19:12:58.778Z,17.87
2019-03-03T19:18:26.710Z,17.77
2019-03-03T19:20:55.041Z,18.60
2019-03-03T19:23:42.666Z,17.83
2019-03-03T19:26:23.112Z,17.80
2019-03-03T19:29:03.343Z,19.57
2019-03-03T19:34:50.816Z,18.87
2019-03-03T19:37:31.342Z,19.33
2019-03-03T19:40:19.256Z,19.87
2019-03-03T19:43:01.290Z,19.60
2019-03-03T19:48:31.370Z,19.40
2019-03-03T19:51:13.763Z,19.90
2019-03-03T19:54:03.394Z,21.33
2019-03-03T19:56:43.818Z,23.43
2019-03-03T19:59:31.465Z,22.10
2019-03-03T20:02:12.197Z,23.57
2019-03-03T20:08:23.377Z,23.83
2019-03-03T20:11:03.688Z,24.20
2019-03-03T20:13:45.115Z,23.77
2019-03-03T20:16:27.127Z,25.77
2019-03-03T20:19:13.896Z,25.83
2019-03-03T20:22:01.416Z,25.73
2019-03-03T20:24:41.990Z,27.70
2019-03-03T20:27:29.531Z,27.17
2019-03-03T20:30:16.964Z,26.10
2019-03-03T20:32:59.123Z,27.03
2019-03-03T20:35:46.844Z,26.90
2019-03-03T20:41:52.104Z,30.03
2019-03-03T20:44:39.805Z,30.37
2019-03-03T20:47:27.085Z,30.63
2019-03-03T20:50:09.461Z,30.60
2019-03-03T20:52:38.458Z,31.93
2019-03-03T20:58:19.206Z,31.00
2019-03-03T21:01:06.890Z,30.90
2019-03-03T21:03:56.699Z,30.27
2019-03-03T21:06:38.650Z,30.87
2019-03-03T21:09:26.142Z,27.73
2019-03-03T21:12:09.263Z,27.40
2019-03-03T21:18:15.263Z,28.57
2019-03-03T21:20:57.898Z,27.33
2019-03-03T21:23:46.118Z,25.93
2019-03-03T21:26:28.921Z,25.77
2019-03-03T21:29:20.741Z,26.57
2019-03-03T21:32:03.170Z,25.60
2019-03-03T21:34:32.578Z,25.80
2019-03-03T21:37:15.098Z,24.93
2019-03-03T21:40:03.249Z,24.17
2019-03-03T21:42:45.836Z,23.90
2019-03-03T21:45:20.145Z,22.57
2019-03-03T21:48:01.119Z,21.73
2019-03-03T21:50:48.729Z,21.87
2019-03-03T21:53:30.782Z,21.40
2019-03-03T21:56:19.304Z,20.93
2019-03-03T21:59:00.650Z,22.35
2019-03-03T22:01:48.937Z,18.40
2019-03-03T22:04:38.233Z,18.47
2019-03-03T22:07:07.195Z,18.03
2019-03-03T22:10:17.050Z,18.10
2019-03-03T22:15:55.634Z,18.27
2019-03-03T22:18:43.940Z,17.60
2019-03-03T22:24:21.853Z,14.70
2019-03-03T22:26:50.841Z,15.27
2019-03-03T22:32:34.340Z,14.37
2019-03-03T22:35:27.229Z,14.10
2019-03-03T22:38:37.388Z,14.03
2019-03-03T22:41:25.455Z,13.20
2019-03-03T22:44:07.875Z,13.80
2019-03-03T22:46:56.070Z,13.70
2019-03-03T22:49:38.002Z,12.90
2019-03-03T22:52:39.815Z,13.00
2019-03-03T22:55:49.235Z,12.17
2019-03-03T22:58:39.876Z,12.40
2019-03-03T23:05:05.046Z,12.07
2019-03-03T23:07:51.956Z,11.40
2019-03-03T23:11:27.406Z,12.07
2019-03-03T23:14:54.352Z,11.27
2019-03-03T23:18:02.463Z,10.70
2019-03-03T23:21:17.539Z,11.17
2019-03-03T23:24:35.232Z,10.97
2019-03-03T23:27:26.187Z,11.27
2019-03-03T23:30:07.363Z,11.37
2019-03-03T23:32:54.910Z,11.13
2019-03-03T23:35:36.309Z,11.27
2019-03-03T23:38:17.259Z,11.50
2019-03-03T23:41:04.879Z,11.50
2019-03-03T23:43:51.945Z,12.33
2019-03-03T23:46:33.908Z,12.07
2019-03-03T23:49:01.958Z,12.60
2019-03-03T23:51:43.696Z,11.73
2019-03-03T23:54:31.300Z,12.07
2019-03-03T23:57:11.898Z,11.30
2019-03-03T23:59:59.671Z,11.70
